sensor_id;sensor_type;location;lat;lon;timestamp;P1;durP1;ratioP1;P2;durP2;ratioP2
25349;SDS011;13302;48.796;11.978;2022-11-15T00:02:54;5.80;;;5.30;;
25349;SDS011;13302;48.796;11.978;2022-11-15T00:06:01;4.77;;;4.43;;
25349;SDS011;13302;48.796;11.978;2022-11-15T00:09:07;5.30;;;4.90;;
25349;SDS011;13302;48.796;11.978;2022-11-15T00:12:13;5.40;;;5.00;;
25349;SDS011;13302;48.796;11.978;2022-11-15T00:15:19;4.87;;;4.57;;
25349;SDS011;13302;48.796;11.978;2022-11-15T00:18:24;5.80;;;5.30;;
25349;SDS011;13302;48.796;11.978;2022-11-15T00:21:29;4.93;;;4.63;;
25349;SDS011;13302;48.796;11.978;2022-11-15T00:24:35;5.30;;;4.90;;
25349;SDS011;13302;48.796;11.978;2022-11-15T00:27:41;5.20;;;4.80;;
25349;SDS011;13302;48.796;11.978;2022-11-15T00:30:46;4.60;;;4.30;;
25349;SDS011;13302;48.796;11.978;2022-11-15T00:33:52;5.30;;;4.90;;
25349;SDS011;13302;48.796;11.978;2022-11-15T00:36:57;5.13;;;4.73;;
25349;SDS011;13302;48.796;11.978;2022-11-15T00:40:03;6.43;;;5.10;;
25349;SDS011;13302;48.796;11.978;2022-11-15T00:43:09;5.47;;;4.93;;
25349;SDS011;13302;48.796;11.978;2022-11-15T00:46:15;5.03;;;4.63;;
25349;SDS011;13302;48.796;11.978;2022-11-15T00:49:20;5.03;;;4.73;;
25349;SDS011;13302;48.796;11.978;2022-11-15T00:52:26;4.90;;;4.40;;
25349;SDS011;13302;48.796;11.978;2022-11-15T00:55:31;4.57;;;4.27;;
25349;SDS011;13302;48.796;11.978;2022-11-15T00:58:37;4.80;;;4.13;;
25349;SDS011;13302;48.796;11.978;2022-11-15T01:01:42;4.43;;;4.03;;
25349;SDS011;13302;48.796;11.978;2022-11-15T01:04:48;4.23;;;3.93;;
25349;SDS011;13302;48.796;11.978;2022-11-15T01:07:57;4.23;;;4.03;;
25349;SDS011;13302;48.796;11.978;2022-11-15T01:11:03;5.20;;;4.70;;
25349;SDS011;13302;48.796;11.978;2022-11-15T01:14:10;5.07;;;4.67;;
25349;SDS011;13302;48.796;11.978;2022-11-15T01:17:16;4.70;;;4.40;;
25349;SDS011;13302;48.796;11.978;2022-11-15T01:20:21;5.23;;;4.83;;
25349;SDS011;13302;48.796;11.978;2022-11-15T01:23:27;5.47;;;5.07;;
25349;SDS011;13302;48.796;11.978;2022-11-15T01:26:33;5.43;;;5.03;;
25349;SDS011;13302;48.796;11.978;2022-11-15T01:29:39;4.60;;;4.30;;
25349;SDS011;13302;48.796;11.978;2022-11-15T01:32:45;4.67;;;4.37;;
25349;SDS011;13302;48.796;11.978;2022-11-15T01:35:50;4.20;;;3.90;;
25349;SDS011;13302;48.796;11.978;2022-11-15T01:38:56;4.37;;;4.07;;
25349;SDS011;13302;48.796;11.978;2022-11-15T01:42:03;4.70;;;4.30;;
25349;SDS011;13302;48.796;11.978;2022-11-15T01:45:15;4.60;;;4.30;;
25349;SDS011;13302;48.796;11.978;2022-11-15T01:48:22;4.53;;;4.23;;
25349;SDS011;13302;48.796;11.978;2022-11-15T01:51:32;5.03;;;4.70;;
25349;SDS011;13302;48.796;11.978;2022-11-15T01:54:38;5.03;;;4.63;;
25349;SDS011;13302;48.796;11.978;2022-11-15T01:57:45;4.30;;;4.00;;
25349;SDS011;13302;48.796;11.978;2022-11-15T02:00:53;4.33;;;4.03;;
25349;SDS011;13302;48.796;11.978;2022-11-15T02:04:00;4.40;;;4.10;;
25349;SDS011;13302;48.796;11.978;2022-11-15T02:07:12;4.50;;;4.20;;
25349;SDS011;13302;48.796;11.978;2022-11-15T02:10:22;4.60;;;4.30;;
25349;SDS011;13302;48.796;11.978;2022-11-15T02:13:29;4.50;;;4.10;;
25349;SDS011;13302;48.796;11.978;2022-11-15T02:16:38;4.37;;;4.07;;
25349;SDS011;13302;48.796;11.978;2022-11-15T02:34:10;4.20;;;4.00;;
25349;SDS011;13302;48.796;11.978;2022-11-15T02:44:12;4.17;;;3.87;;
25349;SDS011;13302;48.796;11.978;2022-11-15T02:47:25;4.13;;;3.83;;
25349;SDS011;13302;48.796;11.978;2022-11-15T02:50:34;4.73;;;4.43;;
25349;SDS011;13302;48.796;11.978;2022-11-15T02:53:40;4.27;;;3.90;;
25349;SDS011;13302;48.796;11.978;2022-11-15T02:56:46;4.50;;;4.10;;
25349;SDS011;13302;48.796;11.978;2022-11-15T03:06:49;4.70;;;4.40;;
25349;SDS011;13302;48.796;11.978;2022-11-15T03:13:16;4.93;;;4.63;;
25349;SDS011;13302;48.796;11.978;2022-11-15T03:19:53;6.10;;;5.50;;
25349;SDS011;13302;48.796;11.978;2022-11-15T03:23:03;6.00;;;5.50;;
25349;SDS011;13302;48.796;11.978;2022-11-15T03:26:12;5.63;;;5.13;;
25349;SDS011;13302;48.796;11.978;2022-11-15T03:29:22;5.30;;;4.80;;
25349;SDS011;13302;48.796;11.978;2022-11-15T03:32:32;5.87;;;5.37;;
25349;SDS011;13302;48.796;11.978;2022-11-15T03:35:42;6.30;;;5.70;;
25349;SDS011;13302;48.796;11.978;2022-11-15T03:38:50;6.23;;;5.73;;
25349;SDS011;13302;48.796;11.978;2022-11-15T03:45:22;6.10;;;5.60;;
25349;SDS011;13302;48.796;11.978;2022-11-15T03:48:35;6.03;;;5.60;;
25349;SDS011;13302;48.796;11.978;2022-11-15T03:51:47;5.47;;;5.07;;
25349;SDS011;13302;48.796;11.978;2022-11-15T03:54:53;5.70;;;5.20;;
25349;SDS011;13302;48.796;11.978;2022-11-15T03:58:01;5.63;;;5.13;;
25349;SDS011;13302;48.796;11.978;2022-11-15T04:01:07;5.70;;;5.30;;
25349;SDS011;13302;48.796;11.978;2022-11-15T04:04:12;5.00;;;4.60;;
25349;SDS011;13302;48.796;11.978;2022-11-15T04:07:18;5.30;;;4.80;;
25349;SDS011;13302;48.796;11.978;2022-11-15T04:10:24;4.57;;;4.27;;
25349;SDS011;13302;48.796;11.978;2022-11-15T04:13:29;5.17;;;4.80;;
25349;SDS011;13302;48.796;11.978;2022-11-15T04:16:35;5.30;;;4.90;;
25349;SDS011;13302;48.796;11.978;2022-11-15T04:19:47;5.40;;;5.00;;
25349;SDS011;13302;48.796;11.978;2022-11-15T04:23:13;6.20;;;5.60;;
25349;SDS011;13302;48.796;11.978;2022-11-15T04:26:45;6.77;;;6.17;;
25349;SDS011;13302;48.796;11.978;2022-11-15T04:29:51;6.17;;;5.67;;
25349;SDS011;13302;48.796;11.978;2022-11-15T04:32:56;6.43;;;5.90;;
25349;SDS011;13302;48.796;11.978;2022-11-15T04:36:02;8.00;;;7.20;;
25349;SDS011;13302;48.796;11.978;2022-11-15T04:39:26;10.60;;;9.40;;
25349;SDS011;13302;48.796;11.978;2022-11-15T04:42:32;8.63;;;7.70;;
25349;SDS011;13302;48.796;11.978;2022-11-15T04:45:37;8.70;;;7.90;;
25349;SDS011;13302;48.796;11.978;2022-11-15T04:48:43;8.63;;;7.73;;
25349;SDS011;13302;48.796;11.978;2022-11-15T04:51:49;7.57;;;6.87;;
25349;SDS011;13302;48.796;11.978;2022-11-15T04:54:54;7.53;;;6.83;;
25349;SDS011;13302;48.796;11.978;2022-11-15T04:58:01;7.77;;;6.30;;
25349;SDS011;13302;48.796;11.978;2022-11-15T05:01:08;6.90;;;6.23;;
25349;SDS011;13302;48.796;11.978;2022-11-15T05:04:18;6.07;;;5.57;;
25349;SDS011;13302;48.796;11.978;2022-11-15T05:07:24;6.23;;;5.73;;
25349;SDS011;13302;48.796;11.978;2022-11-15T05:10:30;6.57;;;5.97;;
25349;SDS011;13302;48.796;11.978;2022-11-15T05:13:36;6.70;;;6.03;;
25349;SDS011;13302;48.796;11.978;2022-11-15T05:16:42;6.00;;;5.50;;
25349;SDS011;13302;48.796;11.978;2022-11-15T05:19:47;6.70;;;6.10;;
25349;SDS011;13302;48.796;11.978;2022-11-15T05:22:54;6.30;;;5.70;;
25349;SDS011;13302;48.796;11.978;2022-11-15T05:26:02;6.27;;;5.77;;
25349;SDS011;13302;48.796;11.978;2022-11-15T05:29:13;6.73;;;6.13;;
25349;SDS011;13302;48.796;11.978;2022-11-15T05:32:20;6.03;;;5.53;;
25349;SDS011;13302;48.796;11.978;2022-11-15T05:35:31;6.13;;;5.53;;
25349;SDS011;13302;48.796;11.978;2022-11-15T05:38:42;5.73;;;5.23;;
25349;SDS011;13302;48.796;11.978;2022-11-15T05:41:54;5.43;;;5.00;;
25349;SDS011;13302;48.796;11.978;2022-11-15T05:45:05;5.90;;;5.40;;
25349;SDS011;13302;48.796;11.978;2022-11-15T05:48:14;5.70;;;5.30;;
25349;SDS011;13302;48.796;11.978;2022-11-15T05:51:20;5.73;;;5.20;;
25349;SDS011;13302;48.796;11.978;2022-11-15T05:54:28;5.97;;;5.57;;
25349;SDS011;13302;48.796;11.978;2022-11-15T05:57:35;5.87;;;5.43;;
25349;SDS011;13302;48.796;11.978;2022-11-15T06:00:42;5.83;;;5.30;;
25349;SDS011;13302;48.796;11.978;2022-11-15T06:03:48;6.67;;;5.60;;
25349;SDS011;13302;48.796;11.978;2022-11-15T06:06:55;5.70;;;5.20;;
25349;SDS011;13302;48.796;11.978;2022-11-15T06:10:01;6.00;;;5.37;;
25349;SDS011;13302;48.796;11.978;2022-11-15T06:13:06;8.07;;;5.70;;
25349;SDS011;13302;48.796;11.978;2022-11-15T06:16:12;6.27;;;5.47;;
25349;SDS011;13302;48.796;11.978;2022-11-15T06:19:18;5.33;;;4.93;;
25349;SDS011;13302;48.796;11.978;2022-11-15T06:22:23;5.73;;;5.30;;
25349;SDS011;13302;48.796;11.978;2022-11-15T06:25:29;5.20;;;4.80;;
25349;SDS011;13302;48.796;11.978;2022-11-15T06:28:36;6.43;;;5.93;;
25349;SDS011;13302;48.796;11.978;2022-11-15T06:31:41;6.00;;;5.50;;
25349;SDS011;13302;48.796;11.978;2022-11-15T06:34:47;6.57;;;5.10;;
25349;SDS011;13302;48.796;11.978;2022-11-15T06:37:52;5.20;;;4.80;;
25349;SDS011;13302;48.796;11.978;2022-11-15T06:41:06;5.20;;;4.80;;
25349;SDS011;13302;48.796;11.978;2022-11-15T06:44:13;5.10;;;4.70;;
25349;SDS011;13302;48.796;11.978;2022-11-15T06:47:18;5.23;;;4.87;;
25349;SDS011;13302;48.796;11.978;2022-11-15T06:50:24;5.40;;;5.00;;
25349;SDS011;13302;48.796;11.978;2022-11-15T06:53:30;5.80;;;5.37;;
25349;SDS011;13302;48.796;11.978;2022-11-15T06:56:38;5.70;;;5.20;;
25349;SDS011;13302;48.796;11.978;2022-11-15T06:59:43;6.07;;;5.50;;
25349;SDS011;13302;48.796;11.978;2022-11-15T07:02:49;5.47;;;5.07;;
25349;SDS011;13302;48.796;11.978;2022-11-15T07:05:55;5.83;;;5.30;;
25349;SDS011;13302;48.796;11.978;2022-11-15T07:09:11;5.80;;;5.40;;
25349;SDS011;13302;48.796;11.978;2022-11-15T07:12:16;7.20;;;6.60;;
25349;SDS011;13302;48.796;11.978;2022-11-15T07:15:23;6.40;;;5.90;;
25349;SDS011;13302;48.796;11.978;2022-11-15T07:18:30;6.37;;;5.87;;
25349;SDS011;13302;48.796;11.978;2022-11-15T07:21:38;6.00;;;5.50;;
25349;SDS011;13302;48.796;11.978;2022-11-15T07:24:44;5.80;;;5.40;;
25349;SDS011;13302;48.796;11.978;2022-11-15T07:27:56;5.70;;;5.20;;
25349;SDS011;13302;48.796;11.978;2022-11-15T07:31:03;6.70;;;6.20;;
25349;SDS011;13302;48.796;11.978;2022-11-15T07:34:09;6.47;;;6.00;;
25349;SDS011;13302;48.796;11.978;2022-11-15T07:37:15;5.90;;;5.50;;
25349;SDS011;13302;48.796;11.978;2022-11-15T07:40:22;6.10;;;5.70;;
25349;SDS011;13302;48.796;11.978;2022-11-15T07:43:28;6.17;;;5.67;;
25349;SDS011;13302;48.796;11.978;2022-11-15T07:46:35;6.03;;;5.57;;
25349;SDS011;13302;48.796;11.978;2022-11-15T07:49:41;5.50;;;5.10;;
25349;SDS011;13302;48.796;11.978;2022-11-15T07:52:46;5.43;;;5.10;;
25349;SDS011;13302;48.796;11.978;2022-11-15T07:55:52;5.30;;;5.00;;
25349;SDS011;13302;48.796;11.978;2022-11-15T07:58:58;5.63;;;5.23;;
25349;SDS011;13302;48.796;11.978;2022-11-15T08:02:04;5.10;;;4.80;;
25349;SDS011;13302;48.796;11.978;2022-11-15T08:05:10;5.90;;;5.50;;
25349;SDS011;13302;48.796;11.978;2022-11-15T08:08:16;5.40;;;5.00;;
25349;SDS011;13302;48.796;11.978;2022-11-15T08:11:22;4.77;;;4.47;;
25349;SDS011;13302;48.796;11.978;2022-11-15T08:14:28;4.80;;;4.50;;
25349;SDS011;13302;48.796;11.978;2022-11-15T08:17:33;5.13;;;4.73;;
25349;SDS011;13302;48.796;11.978;2022-11-15T08:20:39;5.17;;;4.83;;
25349;SDS011;13302;48.796;11.978;2022-11-15T08:23:46;5.67;;;5.17;;
25349;SDS011;13302;48.796;11.978;2022-11-15T08:26:52;5.40;;;5.00;;
25349;SDS011;13302;48.796;11.978;2022-11-15T08:29:57;4.60;;;4.30;;
25349;SDS011;13302;48.796;11.978;2022-11-15T08:33:04;4.97;;;4.67;;
25349;SDS011;13302;48.796;11.978;2022-11-15T08:36:12;5.83;;;5.30;;
25349;SDS011;13302;48.796;11.978;2022-11-15T08:39:19;6.00;;;5.53;;
25349;SDS011;13302;48.796;11.978;2022-11-15T08:42:25;6.70;;;5.60;;
25349;SDS011;13302;48.796;11.978;2022-11-15T08:45:31;6.10;;;5.60;;
25349;SDS011;13302;48.796;11.978;2022-11-15T08:48:39;6.47;;;5.87;;
25349;SDS011;13302;48.796;11.978;2022-11-15T08:51:44;6.90;;;6.37;;
25349;SDS011;13302;48.796;11.978;2022-11-15T08:54:50;6.87;;;6.33;;
25349;SDS011;13302;48.796;11.978;2022-11-15T08:57:56;7.23;;;6.63;;
25349;SDS011;13302;48.796;11.978;2022-11-15T09:01:02;6.20;;;5.60;;
25349;SDS011;13302;48.796;11.978;2022-11-15T09:04:08;5.97;;;5.57;;
25349;SDS011;13302;48.796;11.978;2022-11-15T09:07:14;5.77;;;5.27;;
25349;SDS011;13302;48.796;11.978;2022-11-15T09:10:21;5.57;;;5.07;;
25349;SDS011;13302;48.796;11.978;2022-11-15T09:13:28;4.90;;;4.50;;
25349;SDS011;13302;48.796;11.978;2022-11-15T09:16:33;4.97;;;4.67;;
25349;SDS011;13302;48.796;11.978;2022-11-15T09:19:39;5.30;;;4.90;;
25349;SDS011;13302;48.796;11.978;2022-11-15T09:22:44;5.30;;;4.90;;
25349;SDS011;13302;48.796;11.978;2022-11-15T09:25:50;4.90;;;4.50;;
25349;SDS011;13302;48.796;11.978;2022-11-15T09:28:56;5.37;;;4.83;;
25349;SDS011;13302;48.796;11.978;2022-11-15T09:32:02;5.20;;;4.63;;
25349;SDS011;13302;48.796;11.978;2022-11-15T09:35:07;6.00;;;5.50;;
25349;SDS011;13302;48.796;11.978;2022-11-15T09:38:14;5.53;;;5.03;;
25349;SDS011;13302;48.796;11.978;2022-11-15T09:48:29;5.77;;;5.30;;
25349;SDS011;13302;48.796;11.978;2022-11-15T09:51:40;6.37;;;5.80;;
25349;SDS011;13302;48.796;11.978;2022-11-15T09:57:45;5.70;;;5.20;;
25349;SDS011;13302;48.796;11.978;2022-11-15T10:00:44;6.47;;;5.97;;
25349;SDS011;13302;48.796;11.978;2022-11-15T10:03:36;6.63;;;6.13;;
25349;SDS011;13302;48.796;11.978;2022-11-15T10:06:28;6.03;;;5.50;;
25349;SDS011;13302;48.796;11.978;2022-11-15T10:09:20;6.70;;;6.00;;
25349;SDS011;13302;48.796;11.978;2022-11-15T10:12:12;7.03;;;6.43;;
25349;SDS011;13302;48.796;11.978;2022-11-15T10:15:05;7.30;;;6.60;;
25349;SDS011;13302;48.796;11.978;2022-11-15T10:18:06;7.03;;;6.53;;
25349;SDS011;13302;48.796;11.978;2022-11-15T10:24:11;7.33;;;6.70;;
25349;SDS011;13302;48.796;11.978;2022-11-15T10:26:59;7.37;;;6.70;;
25349;SDS011;13302;48.796;11.978;2022-11-15T10:29:47;7.33;;;6.73;;
25349;SDS011;13302;48.796;11.978;2022-11-15T10:32:36;7.27;;;6.67;;
25349;SDS011;13302;48.796;11.978;2022-11-15T10:35:27;7.83;;;7.00;;
25349;SDS011;13302;48.796;11.978;2022-11-15T10:38:16;7.80;;;7.03;;
25349;SDS011;13302;48.796;11.978;2022-11-15T10:41:06;7.07;;;6.33;;
25349;SDS011;13302;48.796;11.978;2022-11-15T10:44:02;7.80;;;7.10;;
25349;SDS011;13302;48.796;11.978;2022-11-15T10:47:22;7.07;;;6.50;;
25349;SDS011;13302;48.796;11.978;2022-11-15T10:50:30;8.70;;;7.80;;
25349;SDS011;13302;48.796;11.978;2022-11-15T10:53:29;7.77;;;7.17;;
25349;SDS011;13302;48.796;11.978;2022-11-15T10:56:20;7.83;;;7.03;;
25349;SDS011;13302;48.796;11.978;2022-11-15T10:59:14;8.50;;;7.70;;
25349;SDS011;13302;48.796;11.978;2022-11-15T11:02:23;8.83;;;8.03;;
25349;SDS011;13302;48.796;11.978;2022-11-15T11:05:25;7.80;;;7.03;;
25349;SDS011;13302;48.796;11.978;2022-11-15T11:08:28;8.30;;;7.50;;
25349;SDS011;13302;48.796;11.978;2022-11-15T11:11:16;8.23;;;7.43;;
25349;SDS011;13302;48.796;11.978;2022-11-15T11:14:12;8.00;;;7.30;;
25349;SDS011;13302;48.796;11.978;2022-11-15T11:20:28;8.73;;;7.93;;
25349;SDS011;13302;48.796;11.978;2022-11-15T11:26:56;8.67;;;7.93;;
25349;SDS011;13302;48.796;11.978;2022-11-15T11:33:14;9.00;;;8.20;;
25349;SDS011;13302;48.796;11.978;2022-11-15T11:36:16;8.20;;;7.40;;
25349;SDS011;13302;48.796;11.978;2022-11-15T11:39:14;8.53;;;7.63;;
25349;SDS011;13302;48.796;11.978;2022-11-15T11:46:13;8.07;;;7.33;;
25349;SDS011;13302;48.796;11.978;2022-11-15T11:48:57;9.17;;;8.03;;
25349;SDS011;13302;48.796;11.978;2022-11-15T12:07:25;8.30;;;7.60;;
25349;SDS011;13302;48.796;11.978;2022-11-15T12:10:22;8.17;;;7.47;;
25349;SDS011;13302;48.796;11.978;2022-11-15T12:13:19;7.63;;;6.90;;
25349;SDS011;13302;48.796;11.978;2022-11-15T12:19:07;6.77;;;6.27;;
25349;SDS011;13302;48.796;11.978;2022-11-15T12:25:03;7.37;;;6.77;;
25349;SDS011;13302;48.796;11.978;2022-11-15T12:28:02;7.23;;;6.63;;
25349;SDS011;13302;48.796;11.978;2022-11-15T12:31:02;7.50;;;6.90;;
25349;SDS011;13302;48.796;11.978;2022-11-15T12:34:00;7.50;;;6.90;;
25349;SDS011;13302;48.796;11.978;2022-11-15T12:36:53;7.70;;;6.90;;
25349;SDS011;13302;48.796;11.978;2022-11-15T12:40:03;7.20;;;6.67;;
25349;SDS011;13302;48.796;11.978;2022-11-15T12:52:10;6.83;;;6.23;;
25349;SDS011;13302;48.796;11.978;2022-11-15T12:54:58;7.00;;;6.40;;
25349;SDS011;13302;48.796;11.978;2022-11-15T12:57:46;7.17;;;6.57;;
25349;SDS011;13302;48.796;11.978;2022-11-15T13:03:23;6.53;;;5.93;;
25349;SDS011;13302;48.796;11.978;2022-11-15T13:06:34;5.57;;;5.07;;
25349;SDS011;13302;48.796;11.978;2022-11-15T13:10:28;5.80;;;5.30;;
25349;SDS011;13302;48.796;11.978;2022-11-15T13:21:21;5.90;;;5.30;;
25349;SDS011;13302;48.796;11.978;2022-11-15T13:24:29;6.30;;;4.67;;
25349;SDS011;13302;48.796;11.978;2022-11-15T13:27:18;5.40;;;5.00;;
25349;SDS011;13302;48.796;11.978;2022-11-15T13:30:12;5.50;;;5.10;;
25349;SDS011;13302;48.796;11.978;2022-11-15T13:33:07;6.33;;;5.40;;
25349;SDS011;13302;48.796;11.978;2022-11-15T13:36:15;5.43;;;5.03;;
25349;SDS011;13302;48.796;11.978;2022-11-15T13:39:12;7.07;;;5.97;;
25349;SDS011;13302;48.796;11.978;2022-11-15T13:42:15;6.57;;;5.93;;
25349;SDS011;13302;48.796;11.978;2022-11-15T13:45:11;6.40;;;5.77;;
25349;SDS011;13302;48.796;11.978;2022-11-15T13:48:03;6.97;;;6.27;;
25349;SDS011;13302;48.796;11.978;2022-11-15T13:50:50;5.93;;;5.53;;
25349;SDS011;13302;48.796;11.978;2022-11-15T13:53:40;7.10;;;6.50;;
25349;SDS011;13302;48.796;11.978;2022-11-15T13:56:30;7.60;;;6.20;;
25349;SDS011;13302;48.796;11.978;2022-11-15T13:59:29;6.60;;;6.10;;
25349;SDS011;13302;48.796;11.978;2022-11-15T14:02:18;6.20;;;5.70;;
25349;SDS011;13302;48.796;11.978;2022-11-15T14:11:09;7.73;;;6.30;;
25349;SDS011;13302;48.796;11.978;2022-11-15T14:16:58;10.93;;;9.83;;
25349;SDS011;13302;48.796;11.978;2022-11-15T14:19:47;13.37;;;12.17;;
25349;SDS011;13302;48.796;11.978;2022-11-15T14:22:33;12.63;;;11.53;;
25349;SDS011;13302;48.796;11.978;2022-11-15T14:25:27;10.20;;;9.30;;
25349;SDS011;13302;48.796;11.978;2022-11-15T14:28:28;7.57;;;6.73;;
25349;SDS011;13302;48.796;11.978;2022-11-15T14:31:18;6.37;;;5.87;;
25349;SDS011;13302;48.796;11.978;2022-11-15T14:34:08;6.13;;;5.63;;
25349;SDS011;13302;48.796;11.978;2022-11-15T14:36:55;5.70;;;5.00;;
25349;SDS011;13302;48.796;11.978;2022-11-15T14:39:43;5.60;;;5.20;;
25349;SDS011;13302;48.796;11.978;2022-11-15T14:42:31;4.53;;;4.23;;
25349;SDS011;13302;48.796;11.978;2022-11-15T14:45:19;5.00;;;4.60;;
25349;SDS011;13302;48.796;11.978;2022-11-15T14:48:08;4.90;;;4.40;;
25349;SDS011;13302;48.796;11.978;2022-11-15T14:50:56;5.17;;;4.77;;
25349;SDS011;13302;48.796;11.978;2022-11-15T14:53:44;4.50;;;4.20;;
25349;SDS011;13302;48.796;11.978;2022-11-15T14:56:32;4.83;;;4.43;;
25349;SDS011;13302;48.796;11.978;2022-11-15T14:59:19;5.10;;;4.80;;
25349;SDS011;13302;48.796;11.978;2022-11-15T15:02:18;5.03;;;4.63;;
25349;SDS011;13302;48.796;11.978;2022-11-15T15:05:25;5.53;;;5.03;;
25349;SDS011;13302;48.796;11.978;2022-11-15T15:08:17;5.37;;;4.97;;
25349;SDS011;13302;48.796;11.978;2022-11-15T15:11:08;5.23;;;4.77;;
25349;SDS011;13302;48.796;11.978;2022-11-15T15:13:59;5.33;;;4.83;;
25349;SDS011;13302;48.796;11.978;2022-11-15T15:16:47;5.00;;;4.60;;
25349;SDS011;13302;48.796;11.978;2022-11-15T15:19:34;5.63;;;5.13;;
25349;SDS011;13302;48.796;11.978;2022-11-15T15:22:21;6.00;;;4.60;;
25349;SDS011;13302;48.796;11.978;2022-11-15T15:25:23;5.27;;;4.77;;
25349;SDS011;13302;48.796;11.978;2022-11-15T15:28:13;6.27;;;5.47;;
25349;SDS011;13302;48.796;11.978;2022-11-15T15:31:01;6.67;;;5.07;;
25349;SDS011;13302;48.796;11.978;2022-11-15T15:33:48;4.73;;;4.30;;
25349;SDS011;13302;48.796;11.978;2022-11-15T15:36:35;6.37;;;5.07;;
25349;SDS011;13302;48.796;11.978;2022-11-15T15:39:22;5.13;;;4.57;;
25349;SDS011;13302;48.796;11.978;2022-11-15T15:42:10;4.70;;;4.30;;
25349;SDS011;13302;48.796;11.978;2022-11-15T15:44:57;5.17;;;4.53;;
25349;SDS011;13302;48.796;11.978;2022-11-15T15:47:44;4.50;;;4.20;;
25349;SDS011;13302;48.796;11.978;2022-11-15T15:50:33;4.73;;;4.33;;
25349;SDS011;13302;48.796;11.978;2022-11-15T15:53:21;4.53;;;4.13;;
25349;SDS011;13302;48.796;11.978;2022-11-15T15:56:08;4.73;;;4.33;;
25349;SDS011;13302;48.796;11.978;2022-11-15T15:58:56;5.03;;;4.53;;
25349;SDS011;13302;48.796;11.978;2022-11-15T16:01:43;4.37;;;3.93;;
25349;SDS011;13302;48.796;11.978;2022-11-15T16:04:30;4.57;;;4.17;;
25349;SDS011;13302;48.796;11.978;2022-11-15T16:07:20;4.63;;;4.23;;
25349;SDS011;13302;48.796;11.978;2022-11-15T16:13:13;4.20;;;3.80;;
25349;SDS011;13302;48.796;11.978;2022-11-15T16:16:01;3.87;;;3.57;;
25349;SDS011;13302;48.796;11.978;2022-11-15T16:18:48;4.37;;;3.87;;
25349;SDS011;13302;48.796;11.978;2022-11-15T16:21:35;4.77;;;3.53;;
25349;SDS011;13302;48.796;11.978;2022-11-15T16:24:22;4.07;;;3.40;;
25349;SDS011;13302;48.796;11.978;2022-11-15T16:27:15;3.33;;;3.13;;
25349;SDS011;13302;48.796;11.978;2022-11-15T16:30:04;3.50;;;3.30;;
25349;SDS011;13302;48.796;11.978;2022-11-15T16:32:57;3.83;;;3.53;;
25349;SDS011;13302;48.796;11.978;2022-11-15T16:35:44;3.30;;;3.10;;
25349;SDS011;13302;48.796;11.978;2022-11-15T16:38:32;3.97;;;3.67;;
25349;SDS011;13302;48.796;11.978;2022-11-15T16:41:20;4.83;;;4.43;;
25349;SDS011;13302;48.796;11.978;2022-11-15T16:44:07;5.43;;;4.40;;
25349;SDS011;13302;48.796;11.978;2022-11-15T16:46:55;4.80;;;4.40;;
25349;SDS011;13302;48.796;11.978;2022-11-15T16:49:42;4.60;;;4.20;;
25349;SDS011;13302;48.796;11.978;2022-11-15T16:52:31;5.37;;;4.83;;
25349;SDS011;13302;48.796;11.978;2022-11-15T16:55:18;5.57;;;4.63;;
25349;SDS011;13302;48.796;11.978;2022-11-15T16:58:07;4.00;;;3.70;;
25349;SDS011;13302;48.796;11.978;2022-11-15T17:00:56;4.30;;;3.97;;
25349;SDS011;13302;48.796;11.978;2022-11-15T17:03:43;4.53;;;4.13;;
25349;SDS011;13302;48.796;11.978;2022-11-15T17:06:30;4.13;;;3.83;;
25349;SDS011;13302;48.796;11.978;2022-11-15T17:09:18;3.50;;;3.30;;
25349;SDS011;13302;48.796;11.978;2022-11-15T17:12:10;3.70;;;3.50;;
25349;SDS011;13302;48.796;11.978;2022-11-15T17:14:57;3.80;;;3.40;;
25349;SDS011;13302;48.796;11.978;2022-11-15T17:17:44;3.60;;;3.37;;
25349;SDS011;13302;48.796;11.978;2022-11-15T17:20:37;4.20;;;3.90;;
25349;SDS011;13302;48.796;11.978;2022-11-15T17:23:26;3.83;;;3.63;;
25349;SDS011;13302;48.796;11.978;2022-11-15T17:26:14;4.23;;;3.93;;
25349;SDS011;13302;48.796;11.978;2022-11-15T17:29:21;3.57;;;3.37;;
25349;SDS011;13302;48.796;11.978;2022-11-15T17:32:08;3.60;;;3.40;;
25349;SDS011;13302;48.796;11.978;2022-11-15T17:34:55;4.10;;;3.80;;
25349;SDS011;13302;48.796;11.978;2022-11-15T17:37:42;3.87;;;3.57;;
25349;SDS011;13302;48.796;11.978;2022-11-15T17:40:30;3.90;;;3.60;;
25349;SDS011;13302;48.796;11.978;2022-11-15T17:43:17;4.37;;;4.07;;
25349;SDS011;13302;48.796;11.978;2022-11-15T17:46:04;4.73;;;4.43;;
25349;SDS011;13302;48.796;11.978;2022-11-15T17:48:54;4.13;;;3.83;;
25349;SDS011;13302;48.796;11.978;2022-11-15T17:51:42;4.00;;;3.70;;
25349;SDS011;13302;48.796;11.978;2022-11-15T17:54:35;4.43;;;4.13;;
25349;SDS011;13302;48.796;11.978;2022-11-15T17:57:22;4.73;;;4.33;;
25349;SDS011;13302;48.796;11.978;2022-11-15T18:00:09;5.00;;;4.60;;
25349;SDS011;13302;48.796;11.978;2022-11-15T18:02:57;5.13;;;4.77;;
25349;SDS011;13302;48.796;11.978;2022-11-15T18:05:44;4.37;;;3.97;;
25349;SDS011;13302;48.796;11.978;2022-11-15T18:08:32;4.73;;;4.40;;
25349;SDS011;13302;48.796;11.978;2022-11-15T18:11:22;4.20;;;3.90;;
25349;SDS011;13302;48.796;11.978;2022-11-15T18:14:11;4.77;;;4.47;;
25349;SDS011;13302;48.796;11.978;2022-11-15T18:17:00;5.43;;;4.93;;
25349;SDS011;13302;48.796;11.978;2022-11-15T18:19:47;5.13;;;4.80;;
25349;SDS011;13302;48.796;11.978;2022-11-15T18:22:34;5.07;;;4.77;;
25349;SDS011;13302;48.796;11.978;2022-11-15T18:25:21;4.90;;;4.60;;
25349;SDS011;13302;48.796;11.978;2022-11-15T18:28:08;4.23;;;3.93;;
25349;SDS011;13302;48.796;11.978;2022-11-15T18:30:55;5.17;;;4.70;;
25349;SDS011;13302;48.796;11.978;2022-11-15T18:33:43;4.80;;;4.40;;
25349;SDS011;13302;48.796;11.978;2022-11-15T18:36:30;5.30;;;4.90;;
25349;SDS011;13302;48.796;11.978;2022-11-15T18:39:17;6.50;;;6.00;;
25349;SDS011;13302;48.796;11.978;2022-11-15T18:42:05;6.77;;;6.17;;
25349;SDS011;13302;48.796;11.978;2022-11-15T18:44:52;11.37;;;9.43;;
25349;SDS011;13302;48.796;11.978;2022-11-15T18:47:39;10.47;;;8.90;;
25349;SDS011;13302;48.796;11.978;2022-11-15T18:50:26;9.87;;;8.87;;
25349;SDS011;13302;48.796;11.978;2022-11-15T18:53:13;10.20;;;9.27;;
25349;SDS011;13302;48.796;11.978;2022-11-15T18:56:02;13.97;;;12.57;;
25349;SDS011;13302;48.796;11.978;2022-11-15T18:58:52;14.47;;;12.67;;
25349;SDS011;13302;48.796;11.978;2022-11-15T19:01:42;15.27;;;13.67;;
25349;SDS011;13302;48.796;11.978;2022-11-15T19:04:33;14.00;;;12.30;;
25349;SDS011;13302;48.796;11.978;2022-11-15T19:07:20;11.57;;;10.40;;
25349;SDS011;13302;48.796;11.978;2022-11-15T19:10:07;9.90;;;8.97;;
25349;SDS011;13302;48.796;11.978;2022-11-15T19:12:56;9.13;;;8.27;;
25349;SDS011;13302;48.796;11.978;2022-11-15T19:15:44;9.20;;;8.40;;
25349;SDS011;13302;48.796;11.978;2022-11-15T19:18:32;7.70;;;7.00;;
25349;SDS011;13302;48.796;11.978;2022-11-15T19:21:20;6.97;;;6.30;;
25349;SDS011;13302;48.796;11.978;2022-11-15T19:24:07;6.43;;;5.83;;
25349;SDS011;13302;48.796;11.978;2022-11-15T19:26:56;6.63;;;5.97;;
25349;SDS011;13302;48.796;11.978;2022-11-15T19:29:43;7.20;;;6.60;;
25349;SDS011;13302;48.796;11.978;2022-11-15T19:32:30;7.17;;;6.53;;
25349;SDS011;13302;48.796;11.978;2022-11-15T19:35:17;7.40;;;6.70;;
25349;SDS011;13302;48.796;11.978;2022-11-15T19:38:04;7.73;;;7.10;;
25349;SDS011;13302;48.796;11.978;2022-11-15T19:40:59;6.60;;;5.97;;
25349;SDS011;13302;48.796;11.978;2022-11-15T19:43:47;7.33;;;6.63;;